Time;durP1;ratioP1;P1;durP2;ratioP2;P2;SDS_P1;SDS_P2;PMS_P1;PMS_P2;Temp;Humidity;BMP_temperature;BMP_pressure;BME280_temperature;BME280_humidity;BME280_pressure;Samples;Min_cycle;Max_cycle;Signal;HPM_P1;HPM_P2
2023/10/22 00:00:35;;;;;;;5.05;1.35;;;;;;;12.61;100.00;99234.47;5063086;28;20136;-73
2023/10/22 00:03:03;;;;;;;4.00;1.70;;;;;;;12.64;100.00;99231.59;5065822;28;20048;-73
2023/10/22 00:05:31;;;;;;;4.75;1.42;;;;;;;12.53;100.00;99228.88;5058257;28;20054;-73
2023/10/22 00:07:59;;;;;;;2.75;1.33;;;;;;;12.55;100.00;99234.94;5036264;28;20467;-74
2023/10/22 00:10:27;;;;;;;4.60;1.77;;;;;;;12.49;100.00;99238.88;5065610;28;20508;-73
2023/10/22 00:12:55;;;;;;;5.70;1.35;;;;;;;12.44;100.00;99235.69;5063993;28;20130;-73
2023/10/22 00:15:24;;;;;;;3.65;1.67;;;;;;;12.46;100.00;99239.09;5064770;28;20057;-74
2023/10/22 00:17:54;;;;;;;6.03;1.52;;;;;;;12.47;100.00;99245.25;5061615;28;20041;-72
2023/10/22 00:20:22;;;;;;;4.00;1.53;;;;;;;12.43;100.00;99235.84;5061759;28;20044;-75
2023/10/22 00:22:50;;;;;;;4.05;1.40;;;;;;;12.41;100.00;99245.72;5064159;28;20474;-74
2023/10/22 00:25:17;;;;;;;7.82;1.75;;;;;;;12.24;100.00;99231.03;5056506;28;20942;-73
2023/10/22 00:27:45;;;;;;;4.68;1.80;;;;;;;12.33;100.00;99250.72;5058454;28;20497;-73
2023/10/22 00:30:14;;;;;;;4.75;1.75;;;;;;;12.32;100.00;99252.53;5062718;28;20477;-73
2023/10/22 00:32:42;;;;;;;3.47;1.40;;;;;;;12.30;100.00;99255.28;5082940;28;20131;-73
2023/10/22 00:35:12;;;;;;;3.53;1.45;;;;;;;12.28;100.00;99265.16;5063513;28;20048;-72
2023/10/22 00:37:40;;;;;;;6.18;1.52;;;;;;;12.25;100.00;99261.91;5058300;28;20032;-72
2023/10/22 00:40:09;;;;;;;4.15;1.80;;;;;;;12.19;100.00;99257.03;5065330;28;20056;-73
2023/10/22 00:42:37;;;;;;;7.03;2.00;;;;;;;12.15;100.00;99268.81;5061979;28;20401;-73
2023/10/22 00:45:07;;;;;;;3.95;1.70;;;;;;;12.15;100.00;99266.16;5065330;28;20053;-73
2023/10/22 00:47:37;;;;;;;3.28;1.30;;;;;;;12.17;100.00;99266.91;5055820;28;20041;-73
2023/10/22 00:50:07;;;;;;;3.42;1.48;;;;;;;12.10;100.00;99255.03;5060688;28;20600;-73
2023/10/22 00:52:37;;;;;;;3.63;1.65;;;;;;;12.02;100.00;99265.34;5066068;28;20719;-73
2023/10/22 00:55:06;;;;;;;4.00;1.67;;;;;;;11.93;100.00;99249.13;5058417;28;20037;-73
2023/10/22 00:57:37;;;;;;;3.38;1.30;;;;;;;11.88;100.00;99253.91;5059052;28;20051;-73
2023/10/22 01:00:09;;;;;;;7.40;1.67;;;;;;;11.92;100.00;99262.50;5063849;28;20497;-73
2023/10/22 01:02:37;;;;;;;6.10;1.47;;;;;;;11.90;100.00;99267.91;5067966;28;20559;-73
2023/10/22 01:05:06;;;;;;;4.53;1.40;;;;;;;11.81;100.00;99249.13;5067571;28;20387;-75
2023/10/22 01:07:34;;;;;;;6.50;1.60;;;;;;;11.98;100.00;99274.47;5055559;28;20037;-73
2023/10/22 01:10:03;;;;;;;5.07;2.08;;;;;;;11.95;100.00;99272.91;5058462;28;20044;-73
2023/10/22 01:12:37;;;;;;;3.05;1.23;;;;;;;12.04;100.00;99268.75;5061670;28;20052;-72
2023/10/22 01:15:07;;;;;;;2.47;1.17;;;;;;;11.97;100.00;99272.75;5049901;28;20045;-72
2023/10/22 01:17:35;;;;;;;4.30;1.58;;;;;;;11.91;100.00;99271.41;5040417;28;20087;-73
2023/10/22 01:20:05;;;;;;;3.05;1.40;;;;;;;11.70;100.00;99238.38;5073152;28;20045;-73
2023/10/22 01:22:34;;;;;;;4.70;1.33;;;;;;;12.05;100.00;99268.63;5068955;28;20094;-71
2023/10/22 01:25:03;;;;;;;2.72;1.50;;;;;;;12.03;100.00;99267.88;5063044;28;20103;-73
2023/10/22 01:27:33;;;;;;;2.42;0.90;;;;;;;11.89;100.00;99260.06;5056186;28;20049;-73
2023/10/22 01:30:06;;;;;;;3.95;1.33;;;;;;;11.85;100.00;99277.13;5070690;28;20417;-74
2023/10/22 01:32:34;;;;;;;3.20;1.10;;;;;;;11.63;100.00;99245.94;5067497;28;20139;-73
2023/10/22 01:35:02;;;;;;;2.95;1.25;;;;;;;11.74;100.00;99263.75;5069792;28;20064;-73
2023/10/22 01:37:30;;;;;;;3.00;1.10;;;;;;;11.83;100.00;99271.09;5082664;28;20696;-73
2023/10/22 01:39:59;;;;;;;4.45;1.33;;;;;;;11.49;100.00;99219.53;5067744;28;20052;-73
2023/10/22 01:42:29;;;;;;;4.57;1.50;;;;;;;11.87;100.00;99267.28;5067889;28;20037;-73
2023/10/22 01:44:57;;;;;;;4.43;1.10;;;;;;;11.88;100.00;99266.31;5068199;28;20056;-74
2023/10/22 01:47:25;;;;;;;2.95;1.10;;;;;;;11.85;100.00;99270.03;5054278;28;20044;-75
2023/10/22 01:49:52;;;;;;;4.25;1.42;;;;;;;11.81;100.00;99270.34;5062662;28;20064;-74
2023/10/22 01:52:21;;;;;;;4.40;1.20;;;;;;;11.74;100.00;99269.06;5071626;28;20040;-73
2023/10/22 01:54:49;;;;;;;2.88;1.13;;;;;;;11.71;100.00;99270.09;5063495;28;20048;-73
2023/10/22 01:57:17;;;;;;;2.67;1.20;;;;;;;11.77;100.00;99280.34;5061675;28;20045;-73
2023/10/22 01:59:46;;;;;;;3.78;1.08;;;;;;;11.64;100.00;99260.06;5066166;28;20055;-74
2023/10/22 02:02:14;;;;;;;5.57;1.13;;;;;;;11.82;100.00;99278.19;5067716;28;20053;-73
2023/10/22 02:04:42;;;;;;;3.42;1.10;;;;;;;11.86;100.00;99276.19;5065983;28;20045;-73
2023/10/22 02:07:10;;;;;;;3.58;1.08;;;;;;;11.81;100.00;99288.91;5056706;28;20041;-73
2023/10/22 02:09:38;;;;;;;3.35;1.00;;;;;;;11.71;100.00;99286.03;5071178;28;20041;-73
2023/10/22 02:12:08;;;;;;;2.88;1.48;;;;;;;11.44;100.00;99258.75;5067504;28;20044;-73
2023/10/22 02:14:36;;;;;;;5.53;1.13;;;;;;;11.60;100.00;99283.28;5071820;28;20059;-73
2023/10/22 02:17:07;;;;;;;5.80;1.40;;;;;;;11.60;100.00;99288.56;5061705;28;20045;-73
2023/10/22 02:19:35;;;;;;;3.90;1.23;;;;;;;11.58;100.00;99291.31;5067808;28;20050;-74
2023/10/22 02:22:04;;;;;;;3.28;1.20;;;;;;;11.60;100.00;99292.06;5051804;28;20049;-73
2023/10/22 02:24:32;;;;;;;4.28;1.20;;;;;;;11.62;100.00;99293.78;5078226;28;20044;-73
2023/10/22 02:27:00;;;;;;;3.65;1.17;;;;;;;11.62;100.00;99275.22;5060021;28;20070;-72
2023/10/22 02:29:28;;;;;;;3.95;1.25;;;;;;;11.73;100.00;99286.75;5065099;28;20059;-73
2023/10/22 02:31:55;;;;;;;4.80;1.20;;;;;;;11.77;100.00;99295.41;5069957;28;20040;-73
2023/10/22 02:34:26;;;;;;;4.45;1.20;;;;;;;11.64;100.00;99291.88;5067410;28;20045;-74
2023/10/22 02:36:53;;;;;;;7.80;1.42;;;;;;;11.60;100.00;99294.72;5070857;28;20498;-73
2023/10/22 02:39:21;;;;;;;5.50;1.40;;;;;;;11.53;100.00;99298.75;5063974;28;20040;-73
2023/10/22 02:41:49;;;;;;;6.07;1.42;;;;;;;11.48;100.00;99300.03;5070800;28;20040;-73
2023/10/22 02:44:17;;;;;;;2.58;0.98;;;;;;;11.45;100.00;99297.56;5072671;28;20097;-73
2023/10/22 02:46:45;;;;;;;4.28;1.27;;;;;;;11.40;100.00;99299.69;5064118;28;20045;-73
2023/10/22 02:49:13;;;;;;;6.70;1.15;;;;;;;11.38;100.00;99302.44;5063050;28;20047;-74
2023/10/22 02:51:43;;;;;;;5.03;1.10;;;;;;;11.37;100.00;99311.34;5067285;28;20040;-73
2023/10/22 02:54:11;;;;;;;3.08;1.20;;;;;;;11.27;100.00;99307.59;5054495;28;20155;-73
2023/10/22 02:56:39;;;;;;;4.78;1.10;;;;;;;11.22;100.00;99321.16;5063826;28;20059;-73
2023/10/22 02:59:07;;;;;;;4.60;1.20;;;;;;;11.24;100.00;99319.25;5059869;28;20113;-73
2023/10/22 03:01:36;;;;;;;3.30;1.00;;;;;;;11.18;100.00;99311.72;5064353;28;20029;-73
2023/10/22 03:04:06;;;;;;;;;;;;;;;11.31;100.00;99329.47;5072281;28;20053;-73
2023/10/22 03:06:34;;;;;;;5.18;1.13;;;;;;;11.17;100.00;99296.78;5064066;28;19966;-74
2023/10/22 03:09:04;;;;;;;5.85;1.10;;;;;;;11.27;100.00;99315.56;5062066;28;20049;-75
2023/10/22 03:11:32;;;;;;;6.13;1.13;;;;;;;11.30;100.00;99319.81;5072040;28;21600;-73
2023/10/22 03:14:00;;;;;;;2.22;0.95;;;;;;;11.23;100.00;99322.84;5070697;28;20032;-73
2023/10/22 03:16:28;;;;;;;5.45;1.00;;;;;;;11.28;100.00;99333.16;5061447;28;20047;-73
2023/10/22 03:18:55;;;;;;;4.22;1.20;;;;;;;11.24;100.00;99329.84;5055730;28;20055;-73
2023/10/22 03:21:25;;;;;;;3.13;1.25;;;;;;;11.21;100.00;99332.72;5067497;28;20302;-73
2023/10/22 03:23:53;;;;;;;4.50;1.08;;;;;;;11.13;100.00;99313.84;5067679;28;20055;-73
2023/10/22 03:26:22;;;;;;;4.03;1.13;;;;;;;11.04;100.00;99305.63;5062471;28;20120;-73
2023/10/22 03:28:51;;;;;;;4.13;1.40;;;;;;;11.16;100.00;99341.94;5060211;28;20424;-72
2023/10/22 03:31:19;;;;;;;3.53;0.95;;;;;;;11.06;100.00;99330.22;5071250;28;20033;-73
2023/10/22 03:33:47;;;;;;;4.75;1.00;;;;;;;11.08;100.00;99342.41;5065751;28;20072;-73
2023/10/22 03:36:15;;;;;;;5.32;1.02;;;;;;;11.10;100.00;99337.03;5065780;28;20036;-72
2023/10/22 03:38:43;;;;;;;4.93;1.00;;;;;;;11.08;100.00;99336.28;5060897;28;20050;-73
2023/10/22 03:41:11;;;;;;;4.35;1.00;;;;;;;11.16;100.00;99341.94;5066816;28;20048;-73
2023/10/22 03:43:40;;;;;;;5.63;0.90;;;;;;;11.18;100.00;99354.09;5070151;28;20059;-73
2023/10/22 03:46:09;;;;;;;4.07;0.90;;;;;;;11.20;100.00;99357.50;5070684;28;20036;-73
2023/10/22 03:48:37;;;;;;;4.45;1.05;;;;;;;11.20;100.00;99360.16;5076741;28;20075;-73
2023/10/22 03:51:07;;;;;;;6.13;1.02;;;;;;;11.03;100.00;99328.63;5075665;28;20135;-73
2023/10/22 03:53:38;;;;;;;4.45;1.23;;;;;;;11.27;100.00;99360.63;5074598;28;20083;-73
2023/10/22 03:56:07;;;;;;;4.00;1.10;;;;;;;11.12;100.00;99338.63;5069299;28;20088;-73
2023/10/22 03:58:35;;;;;;;4.30;0.95;;;;;;;11.23;100.00;99367.06;5062225;28;20070;-73
2023/10/22 04:01:04;;;;;;;4.53;1.38;;;;;;;11.22;100.00;99373.31;5067154;28;20028;-74
2023/10/22 04:03:32;;;;;;;5.28;1.00;;;;;;;11.20;100.00;99365.47;5064639;28;21479;-73
2023/10/22 04:06:01;;;;;;;6.57;1.13;;;;;;;11.18;100.00;99380.59;5061476;28;21338;-74
2023/10/22 04:08:29;;;;;;;5.57;0.82;;;;;;;11.19;100.00;99373.50;5060538;28;20052;-73
2023/10/22 04:10:57;;;;;;;4.57;1.13;;;;;;;11.15;100.00;99378.19;5066269;28;20048;-73
2023/10/22 04:13:25;;;;;;;5.30;1.10;;;;;;;11.13;100.00;99374.78;5062610;28;20052;-73
2023/10/22 04:15:53;;;;;;;5.60;1.20;;;;;;;11.12;100.00;99375.72;5068206;28;20412;-74
2023/10/22 04:18:22;;;;;;;6.88;1.23;;;;;;;11.04;100.00;99361.25;5060272;28;20044;-73
2023/10/22 04:20:50;;;;;;;6.25;1.05;;;;;;;11.07;100.00;99369.00;5071400;28;20086;-74
2023/10/22 04:23:19;;;;;;;5.38;1.27;;;;;;;11.06;100.00;99352.28;5078771;28;20455;-73
2023/10/22 04:25:47;;;;;;;6.63;1.02;;;;;;;11.21;100.00;99376.91;5054207;28;20092;-73
2023/10/22 04:28:15;;;;;;;4.47;1.10;;;;;;;11.29;100.00;99397.63;5061939;28;20143;-73
2023/10/22 04:30:44;;;;;;;4.10;1.27;;;;;;;11.29;100.00;99387.88;5065853;28;20406;-73
2023/10/22 04:33:12;;;;;;;3.70;1.10;;;;;;;11.30;100.00;99396.66;5070839;28;20052;-74
2023/10/22 04:35:42;;;;;;;2.85;0.73;;;;;;;11.28;100.00;99402.06;5065067;28;20070;-73
2023/10/22 04:38:13;;;;;;;4.00;1.20;;;;;;;11.28;100.00;99403.88;5057887;28;20044;-73
2023/10/22 04:40:41;;;;;;;6.05;0.90;;;;;;;11.37;100.00;99401.44;5069207;28;20036;-72
2023/10/22 04:43:09;;;;;;;5.50;1.42;;;;;;;11.32;100.00;99384.19;5070443;28;20052;-73
2023/10/22 04:45:37;;;;;;;6.05;0.95;;;;;;;11.46;100.00;99403.50;5088572;28;20045;-73
2023/10/22 04:48:08;;;;;;;6.13;0.98;;;;;;;11.56;100.00;99414.34;5062209;28;20033;-73
2023/10/22 04:50:38;;;;;;;3.15;1.00;;;;;;;11.57;100.00;99406.28;5067443;28;20055;-73
2023/10/22 04:53:07;;;;;;;6.18;1.10;;;;;;;11.63;100.00;99412.16;5075727;28;20053;-73
2023/10/22 04:55:35;;;;;;;5.15;1.08;;;;;;;11.64;100.00;99416.50;5051631;28;20064;-74
2023/10/22 04:58:03;;;;;;;4.80;0.77;;;;;;;11.54;100.00;99405.63;5074007;28;20056;-73
2023/10/22 05:00:31;;;;;;;7.13;1.30;;;;;;;11.62;100.00;99419.25;5065480;28;20040;-73
2023/10/22 05:02:59;;;;;;;4.53;1.38;;;;;;;11.61;100.00;99428.16;5075119;28;20037;-73
2023/10/22 05:05:27;;;;;;;3.83;0.95;;;;;;;11.55;100.00;99415.28;5070017;28;20053;-73
2023/10/22 05:07:55;;;;;;;5.05;1.10;;;;;;;11.61;100.00;99430.81;5062903;28;20620;-73
2023/10/22 05:10:24;;;;;;;2.67;0.90;;;;;;;11.66;100.00;99431.34;5057356;28;20080;-73
2023/10/22 05:12:52;;;;;;;6.32;1.30;;;;;;;11.68;100.00;99436.53;5070970;28;20285;-74
2023/10/22 05:15:22;;;;;;;5.88;1.42;;;;;;;11.72;100.00;99441.53;5070200;28;20049;-73
2023/10/22 05:17:51;;;;;;;5.57;1.00;;;;;;;11.78;100.00;99442.97;5068341;28;20647;-74
2023/10/22 05:20:19;;;;;;;3.97;0.90;;;;;;;11.73;100.00;99422.03;5052341;28;20044;-73
2023/10/22 05:22:48;;;;;;;3.65;1.13;;;;;;;11.85;100.00;99446.91;5079775;28;20051;-73
2023/10/22 05:25:16;;;;;;;8.30;1.42;;;;;;;11.85;100.00;99449.56;5069080;28;20564;-73
2023/10/22 05:27:45;;;;;;;7.82;1.42;;;;;;;11.88;100.00;99458.16;5069551;28;20045;-73
2023/10/22 05:30:15;;;;;;;6.07;1.38;;;;;;;11.90;100.00;99463.38;5067263;28;20055;-74
2023/10/22 05:32:43;;;;;;;6.22;1.30;;;;;;;11.94;100.00;99462.22;5076804;28;20536;-73
2023/10/22 05:35:10;;;;;;;9.07;1.90;;;;;;;11.96;100.00;99462.97;5069257;28;20049;-73
2023/10/22 05:37:42;;;;;;;5.22;1.60;;;;;;;11.84;100.00;99448.69;5070771;28;20033;-73
2023/10/22 05:40:11;;;;;;;6.45;1.30;;;;;;;12.03;100.00;99471.34;5062289;28;20055;-73
2023/10/22 05:42:39;;;;;;;5.60;1.42;;;;;;;12.00;100.00;99460.94;5067470;28;20048;-74
2023/10/22 05:45:09;;;;;;;8.85;2.13;;;;;;;12.08;100.00;99474.56;5065289;28;20052;-73
2023/10/22 05:47:37;;;;;;;8.98;1.60;;;;;;;11.99;100.00;99449.47;5069040;28;20033;-73
2023/10/22 05:50:06;;;;;;;4.82;1.40;;;;;;;12.15;100.00;99475.81;5058402;28;20063;-73
2023/10/22 05:52:34;;;;;;;6.53;1.50;;;;;;;12.04;100.00;99462.44;5070363;28;20079;-74
2023/10/22 05:55:02;;;;;;;3.15;1.25;;;;;;;12.08;100.00;99477.19;5069858;28;20045;-74
2023/10/22 05:57:30;;;;;;;3.63;1.30;;;;;;;12.03;100.00;99477.50;5073888;28;20473;-73
2023/10/22 05:59:59;;;;;;;4.70;1.23;;;;;;;12.00;100.00;99468.91;5058389;28;20591;-73
2023/10/22 06:02:28;;;;;;;9.82;1.52;;;;;;;12.05;100.00;99477.41;5066534;28;20040;-73
2023/10/22 06:04:56;;;;;;;6.63;1.83;;;;;;;11.96;100.00;99462.97;5070527;28;20049;-73
2023/10/22 06:07:30;;;;;;;5.50;1.10;;;;;;;12.00;100.00;99480.34;5063840;28;20114;-73
2023/10/22 06:09:58;;;;;;;7.03;1.58;;;;;;;11.85;100.00;99463.66;5062764;28;20091;-74
2023/10/22 06:12:29;;;;;;;5.97;1.20;;;;;;;12.04;100.00;99491.63;5063284;28;20444;-74
2023/10/22 06:15:03;;;;;;;5.28;1.30;;;;;;;12.03;100.00;99508.50;5072602;28;20040;-74
2023/10/22 06:17:32;;;;;;;6.70;1.58;;;;;;;12.05;100.00;99499.47;5070044;28;20047;-73
2023/10/22 06:20:00;;;;;;;4.78;1.20;;;;;;;12.08;100.00;99501.94;5062831;28;20060;-73
2023/10/22 06:22:28;;;;;;;4.85;1.42;;;;;;;12.07;100.00;99500.22;5068905;28;20051;-74
2023/10/22 06:24:56;;;;;;;6.00;1.40;;;;;;;12.11;100.00;99493.78;5071103;28;20037;-73
2023/10/22 06:27:24;;;;;;;6.43;1.70;;;;;;;12.04;100.00;99502.25;5074918;28;20056;-74
2023/10/22 06:29:54;;;;;;;4.45;1.13;;;;;;;11.98;100.00;99506.13;5063160;28;20044;-73
2023/10/22 06:32:22;;;;;;;5.45;1.27;;;;;;;11.94;100.00;99504.66;5066264;28;20441;-73
2023/10/22 06:34:51;;;;;;;8.98;1.92;;;;;;;11.93;100.00;99508.28;5064343;28;20060;-74
2023/10/22 06:37:19;;;;;;;6.45;1.67;;;;;;;11.93;100.00;99511.78;5071435;28;20052;-74
2023/10/22 06:39:47;;;;;;;7.13;1.60;;;;;;;11.75;100.00;99488.22;5061769;28;20144;-76
2023/10/22 06:42:16;;;;;;;6.97;1.48;;;;;;;11.94;100.00;99521.44;5070658;28;20467;-74
2023/10/22 06:44:44;;;;;;;9.38;1.80;;;;;;;11.93;100.00;99518.88;5069636;28;20140;-74
2023/10/22 06:47:11;;;;;;;4.88;1.42;;;;;;;11.98;100.00;99522.06;5072682;28;20163;-75
2023/10/22 06:49:39;;;;;;;8.23;1.35;;;;;;;12.14;100.00;99538.66;5082121;28;20056;-73
2023/10/22 06:52:08;;;;;;;5.40;1.45;;;;;;;12.12;100.00;99537.91;5069431;28;20148;-73
2023/10/22 06:54:36;;;;;;;8.68;1.65;;;;;;;12.23;100.00;99551.34;5072535;28;20055;-74
2023/10/22 06:57:05;;;;;;;6.28;1.40;;;;;;;12.36;100.00;99553.16;5071214;28;20112;-73
2023/10/22 06:59:34;;;;;;;7.55;1.45;;;;;;;12.44;100.00;99542.84;5063985;28;20044;-73
2023/10/22 07:02:02;;;;;;;6.90;1.27;;;;;;;12.56;100.00;99550.00;5064710;28;20253;-74
2023/10/22 07:04:30;;;;;;;8.70;1.35;;;;;;;12.68;100.00;99559.78;5069621;28;20303;-73
2023/10/22 07:06:57;;;;;;;6.13;1.85;;;;;;;12.71;100.00;99556.06;5049619;28;20041;-73
2023/10/22 07:09:27;;;;;;;7.47;1.63;;;;;;;12.77;100.00;99556.47;5061841;28;20093;-73
2023/10/22 07:11:55;;;;;;;5.65;1.60;;;;;;;12.83;100.00;99557.88;5063737;28;20048;-73
2023/10/22 07:14:23;;;;;;;5.75;1.35;;;;;;;12.88;100.00;99564.56;5074673;28;20044;-75
2023/10/22 07:16:51;;;;;;;5.97;1.70;;;;;;;12.90;100.00;99564.47;5074869;28;20036;-74
2023/10/22 07:19:19;;;;;;;8.32;1.33;;;;;;;12.94;100.00;99569.44;5063559;28;20033;-73
2023/10/22 07:21:47;;;;;;;5.55;1.52;;;;;;;12.94;100.00;99557.97;5066448;28;20067;-73
2023/10/22 07:24:15;;;;;;;8.27;1.75;;;;;;;13.03;100.00;99569.78;5069100;28;20124;-73
2023/10/22 07:26:45;;;;;;;5.88;1.40;;;;;;;13.03;100.00;99560.00;5070223;28;20059;-73
2023/10/22 07:29:13;;;;;;;8.93;1.90;;;;;;;13.09;100.00;99575.50;5070699;28;20040;-74
2023/10/22 07:31:43;;;;;;;4.43;1.60;;;;;;;13.03;100.00;99567.13;5059550;28;20475;-74
2023/10/22 07:34:12;;;;;;;9.32;1.70;;;;;;;13.03;100.00;99562.66;5075109;28;20036;-74
2023/10/22 07:36:40;;;;;;;5.78;1.38;;;;;;;13.18;100.00;99588.19;5064049;28;20059;-74
2023/10/22 07:39:08;;;;;;;7.82;1.55;;;;;;;13.21;100.00;99581.81;5069050;28;20041;-72
2023/10/22 07:41:36;;;;;;;10.05;1.92;;;;;;;13.29;100.00;99584.75;5079382;28;20041;-73
2023/10/22 07:44:07;;;;;;;4.88;1.30;;;;;;;13.33;100.00;99591.56;5070016;28;20044;-74
2023/10/22 07:46:35;;;;;;;6.13;1.67;;;;;;;13.33;100.00;99595.06;5067891;28;20053;-73
2023/10/22 07:49:04;;;;;;;13.65;1.95;;;;;;;13.44;100.00;99599.63;5066493;28;20047;-74
2023/10/22 07:51:32;;;;;;;7.70;1.40;;;;;;;13.50;100.00;99599.19;5060856;28;20041;-73
2023/10/22 07:54:01;;;;;;;8.73;1.77;;;;;;;13.65;100.00;99605.22;5069430;28;20104;-73
2023/10/22 07:56:30;;;;;;;10.05;1.67;;;;;;;13.71;100.00;99594.13;5075348;28;20044;-73
2023/10/22 07:58:58;;;;;;;7.00;1.52;;;;;;;13.92;100.00;99607.69;5089536;28;20480;-74
2023/10/22 08:01:27;;;;;;;8.38;1.80;;;;;;;14.09;100.00;99609.09;5060282;28;20052;-73
2023/10/22 08:03:55;;;;;;;8.48;1.75;;;;;;;14.14;100.00;99610.47;5071464;28;20048;-72
2023/10/22 08:06:24;;;;;;;8.40;1.73;;;;;;;14.21;100.00;99614.38;5069703;28;20393;-73
2023/10/22 08:08:54;;;;;;;8.15;1.52;;;;;;;14.30;100.00;99618.19;5068593;28;20110;-73
2023/10/22 08:11:22;;;;;;;9.73;1.35;;;;;;;14.32;100.00;99617.06;5053319;28;20781;-73
2023/10/22 08:13:51;;;;;;;9.32;2.08;;;;;;;14.42;100.00;99611.09;5068784;28;20037;-73
2023/10/22 08:16:20;;;;;;;7.03;2.17;;;;;;;14.47;100.00;99620.47;5067687;28;20048;-75
2023/10/22 08:18:50;;;;;;;7.75;1.50;;;;;;;14.40;100.00;99635.19;5062934;28;20670;-76
2023/10/22 08:21:18;;;;;;;8.75;1.80;;;;;;;14.35;100.00;99635.50;5060292;28;20074;-74
2023/10/22 08:23:47;;;;;;;10.13;1.60;;;;;;;14.31;100.00;99635.84;5065702;28;20032;-74
2023/10/22 08:26:15;;;;;;;8.20;1.55;;;;;;;14.30;100.00;99643.00;5057949;28;20052;-74
2023/10/22 08:28:43;;;;;;;5.47;1.30;;;;;;;14.27;100.00;99643.22;5079687;28;20045;-74
2023/10/22 08:31:11;;;;;;;7.78;1.42;;;;;;;14.25;100.00;99642.47;5062110;28;20070;-75
2023/10/22 08:33:40;;;;;;;6.15;1.55;;;;;;;14.24;100.00;99650.56;5057783;28;20139;-76
2023/10/22 08:36:10;;;;;;;4.50;1.23;;;;;;;14.20;100.00;99647.28;5067111;28;20141;-74
2023/10/22 08:38:39;;;;;;;5.90;1.20;;;;;;;14.31;100.00;99651.84;5065279;28;20486;-73
2023/10/22 08:41:15;;;;;;;5.72;1.20;;;;;;;14.37;100.00;99665.53;5064174;28;20110;-73
2023/10/22 08:43:45;;;;;;;6.45;1.48;;;;;;;14.37;100.00;99672.66;5067244;28;20564;-73
2023/10/22 08:46:13;;;;;;;8.73;1.70;;;;;;;14.40;100.00;99675.16;5045830;28;20068;-74
2023/10/22 08:48:42;;;;;;;5.75;1.60;;;;;;;14.34;100.00;99664.91;5066416;28;20037;-73
2023/10/22 08:51:12;;;;;;;6.05;1.50;;;;;;;14.41;100.00;99670.66;5064000;28;20028;-73
2023/10/22 08:53:41;;;;;;;7.63;1.80;;;;;;;14.34;100.00;99676.41;5075065;28;20045;-74
2023/10/22 08:56:09;;;;;;;5.95;2.00;;;;;;;14.35;100.00;99680.78;5086454;28;20071;-74
2023/10/22 08:58:37;;;;;;;9.50;2.50;;;;;;;14.27;100.00;99680.50;5081640;28;20114;-74
2023/10/22 09:01:05;;;;;;;9.07;2.28;;;;;;;14.14;100.00;99685.03;5069093;28;20049;-74
2023/10/22 09:03:33;;;;;;;6.38;1.58;;;;;;;14.12;100.00;99683.44;5081967;28;20040;-74
2023/10/22 09:06:03;;;;;;;8.80;2.58;;;;;;;14.11;100.00;99693.22;5078614;28;20152;-73
2023/10/22 09:08:43;;;;;;;8.60;2.03;;;;;;;14.07;100.00;99691.75;5085292;28;20264;-73
2023/10/22 09:11:13;;;;;;;6.53;1.63;;;;;;;13.88;100.00;99700.19;5070673;28;20053;-74
2023/10/22 09:13:41;;;;;;;6.78;1.50;;;;;;;13.88;100.00;99694.03;5082690;28;20062;-74
2023/10/22 09:16:10;;;;;;;8.90;2.00;;;;;;;13.97;100.00;99704.03;5075868;28;20033;-73
2023/10/22 09:18:44;;;;;;;5.22;1.40;;;;;;;13.96;100.00;99697.00;5071064;28;20087;-74
2023/10/22 09:21:12;;;;;;;8.77;1.75;;;;;;;13.92;100.00;99690.19;5061414;28;20147;-74
2023/10/22 09:23:42;;;;;;;2.97;1.20;;;;;;;13.97;100.00;99696.03;5074125;28;20040;-74
2023/10/22 09:26:11;;;;;;;9.38;1.45;;;;;;;14.05;100.00;99688.34;5068782;28;20044;-74
2023/10/22 09:28:39;;;;;;;5.65;1.38;;;;;;;14.15;100.00;99694.72;5068016;28;20044;-74
2023/10/22 09:31:07;;;;;;;5.45;1.52;;;;;;;14.37;100.00;99702.81;5066220;28;20043;-74
2023/10/22 09:33:36;;;;;;;7.18;1.60;;;;;;;14.58;100.00;99700.44;5067122;28;20052;-74
2023/10/22 09:36:07;;;;;;;9.70;1.85;;;;;;;14.74;100.00;99698.31;5069554;28;20519;-74
2023/10/22 09:38:43;;;;;;;8.65;1.33;;;;;;;14.77;100.00;99704.38;5069602;28;20071;-74
2023/10/22 09:41:12;;;;;;;5.85;1.13;;;;;;;14.89;100.00;99698.97;5060281;28;20037;-74
2023/10/22 09:43:40;;;;;;;4.78;1.45;;;;;;;15.14;100.00;99699.75;5063824;28;20056;-75
2023/10/22 09:46:08;;;;;;;8.68;1.52;;;;;;;15.28;100.00;99699.53;5066171;28;20036;-74
2023/10/22 09:48:37;;;;;;;6.28;1.27;;;;;;;15.07;100.00;99686.91;5067786;28;20048;-74
2023/10/22 09:51:06;;;;;;;7.53;1.20;;;;;;;14.93;100.00;99703.13;5057044;28;20048;-75
2023/10/22 09:53:40;;;;;;;9.85;1.65;;;;;;;14.76;100.00;99703.53;5067923;28;20048;-75
2023/10/22 09:56:11;;;;;;;8.57;1.80;;;;;;;14.69;100.00;99703.13;5066803;28;20535;-74
2023/10/22 09:58:47;;;;;;;9.32;1.73;;;;;;;14.83;100.00;99707.41;5071013;28;20048;-75
2023/10/22 10:01:19;;;;;;;5.63;1.25;;;;;;;15.05;100.00;99715.50;5058447;28;20068;-74
2023/10/22 10:03:50;;;;;;;7.80;1.45;;;;;;;15.16;100.00;99706.69;5069408;28;20634;-74
2023/10/22 10:06:18;;;;;;;6.53;1.83;;;;;;;15.18;100.00;99703.91;5069484;28;20144;-74
2023/10/22 10:08:47;;;;;;;6.65;1.48;;;;;;;15.36;100.00;99718.47;5085369;28;20049;-73
2023/10/22 10:11:17;;;;;;;6.35;1.50;;;;;;;15.42;100.00;99715.34;5060291;28;20130;-73
2023/10/22 10:13:46;;;;;;;7.63;1.15;;;;;;;15.28;100.00;99715.53;5047381;28;20045;-74
2023/10/22 10:16:14;;;;;;;5.35;1.40;;;;;;;15.03;100.00;99713.91;5072469;28;20098;-74
2023/10/22 10:19:02;;;;;;;6.22;1.52;;;;;;;15.04;100.00;99726.28;5068878;28;20050;-74
2023/10/22 10:21:39;;;;;;;6.32;1.23;;;;;;;15.18;100.00;99733.22;5066021;28;20040;-74
2023/10/22 10:24:23;;;;;;;7.07;1.55;;;;;;;15.15;100.00;99725.47;5072844;28;20110;-75
2023/10/22 10:27:13;;;;;;;10.80;1.95;;;;;;;15.03;100.00;99729.91;5068750;28;20102;-76
2023/10/22 10:29:43;;;;;;;6.88;1.67;;;;;;;14.79;100.00;99716.63;5079927;28;20055;-75
2023/10/22 10:32:22;;;;;;;8.63;1.80;;;;;;;15.07;100.00;99732.25;5066773;28;20045;-74
2023/10/22 10:34:50;;;;;;;7.80;1.58;;;;;;;15.22;100.00;99729.38;5070041;28;20068;-73
2023/10/22 10:37:24;;;;;;;7.93;1.70;;;;;;;15.28;100.00;99735.06;5073957;28;20041;-75
2023/10/22 10:39:53;;;;;;;10.82;1.80;;;;;;;15.33;100.00;99734.72;5072314;28;20101;-74
2023/10/22 10:42:48;;;;;;;7.55;1.38;;;;;;;15.51;100.00;99733.31;5063825;28;20053;-74
2023/10/22 10:45:18;;;;;;;5.75;1.27;;;;;;;15.53;100.00;99736.72;5072099;28;20060;-75
2023/10/22 10:47:47;;;;;;;7.35;1.20;;;;;;;15.44;100.00;99729.41;5072050;28;20051;-76
2023/10/22 10:50:19;;;;;;;4.95;1.13;;;;;;;15.45;100.00;99726.63;5066966;28;20049;-74
2023/10/22 10:53:02;;;;;;;6.03;1.40;;;;;;;15.33;100.00;99724.06;5064606;28;20084;-75
2023/10/22 10:55:33;;;;;;;10.98;2.20;;;;;;;15.29;100.00;99719.91;5060964;28;20468;-74
2023/10/22 10:58:03;;;;;;;6.82;1.20;;;;;;;15.33;100.00;99732.06;5072590;28;20112;-75
2023/10/22 11:00:32;;;;;;;6.80;1.35;;;;;;;15.29;100.00;99731.44;5066319;28;20039;-76
2023/10/22 11:03:03;;;;;;;3.50;0.90;;;;;;;15.05;100.00;99728.84;5050733;28;20053;-75
2023/10/22 11:05:36;;;;;;;7.30;1.00;;;;;;;14.99;100.00;99723.97;5076390;28;20102;-74
2023/10/22 11:08:05;;;;;;;5.43;1.08;;;;;;;15.12;100.00;99734.53;5073687;28;20520;-75
2023/10/22 11:10:35;;;;;;;8.00;1.20;;;;;;;15.17;100.00;99732.38;5069418;28;20094;-75
2023/10/22 11:13:05;;;;;;;8.02;1.27;;;;;;;15.19;100.00;99740.25;5070547;28;20049;-74
2023/10/22 11:15:35;;;;;;;;;;;;;;;15.17;100.00;99736.88;5073365;28;20039;-75
2023/10/22 11:18:04;;;;;;;6.95;1.35;;;;;;;15.12;100.00;99739.88;5074353;28;19959;-75
2023/10/22 11:20:32;;;;;;;5.05;1.33;;;;;;;15.24;100.00;99738.97;5068257;28;20115;-74
2023/10/22 11:23:00;;;;;;;7.32;1.42;;;;;;;15.12;100.00;99707.88;5065699;28;20127;-75
2023/10/22 11:25:30;;;;;;;8.40;1.35;;;;;;;14.94;100.00;99699.50;5072137;28;20119;-73
2023/10/22 11:27:58;;;;;;;10.10;1.60;;;;;;;15.14;100.00;99739.75;5078531;28;20048;-75
2023/10/22 11:30:36;;;;;;;4.95;1.23;;;;;;;15.03;100.00;99730.78;5071239;28;20068;-74
2023/10/22 11:33:07;;;;;;;7.63;1.40;;;;;;;15.08;100.00;99749.09;5069131;28;20041;-74